PWSweather.com
Personal Weather Stations
Station Observations
KNHRINDG3
Converse Meadow Pond, Rindge, NH 03461

Converse Meadow PondRindge, NH 03461

Lat: 42.74, Lon: -71.98

Elevation: 1060

Station Type: Davis Vantage Pro 2

http://nhwoodworker.com/weather/index.php

Latest ConditionsUpdated 6:20:04 PM EDT Sunday, Sep 25, 2016
Currently Today's Max Today's Min Today's Average
Temperature 54.7°F12.6°C 61.2°F16.2°C 32.6°F0.3°C 46.6°F8.1°C
Dew Point 39.3°F4.1°C 41.7°F5.4°C 31.9°F-0.1°C 37.7°F3.2°C
Winds 1.2 mph NNE1.9 kmh NNE 4.6 mph NE7.4 kmh NE - 1.1 mph 1.8 kmh
Wind Gusts 2.3 mph3.7 kmh 11.5 mph18.5 kmh - -
Humidity 56% 99% 42% 75%
Pressure 30.11 in1019.6 mb 30.14 in1020.7 mb 30.08 in1018.6 mb -
Hour Temp Dew Point Humidity Winds Wind Gusts Pressure Precip Precip Rate Daily Precip Total
06:20 PM 54.7°F12.6°C 39.3°F4.1°C 56% 1.2 mph NNE1.9 kmh NNE 2.3 mph3.7 kmh 30.11 in1019.6 mb - 0.00 in0.0 mm 0.00 in0.0 mm
06:10 PM 55.3°F12.9°C 38.5°F3.6°C 53% Calm Calm 1.2 mph1.9 kmh 30.11 in1019.6 mb - 0.00 in0.0 mm 0.00 in0.0 mm
06:00 PM 56.1°F13.4°C 39.2°F4.0°C 53% Calm Calm 1.2 mph1.9 kmh 30.10 in1019.3 mb - 0.00 in0.0 mm 0.00 in0.0 mm
05:50 PM 56.6°F13.7°C 38.2°F3.4°C 50% Calm Calm -- 30.10 in1019.3 mb - 0.00 in0.0 mm 0.00 in0.0 mm
05:40 PM 57.2°F14.0°C 37.7°F3.2°C 48% Calm Calm -- 30.10 in1019.3 mb - 0.00 in0.0 mm 0.00 in0.0 mm
05:30 PM 57.7°F14.3°C 37.0°F2.8°C 46% 1.2 mph NNW1.9 kmh NNW 3.5 mph5.6 kmh 30.10 in1019.3 mb - 0.00 in0.0 mm 0.00 in0.0 mm
05:20 PM 58.8°F14.9°C 40.7°F4.8°C 51% 1.2 mph NNW1.9 kmh NNW 1.2 mph1.9 kmh 30.10 in1019.3 mb - 0.00 in0.0 mm 0.00 in0.0 mm
05:10 PM 59.6°F15.3°C 37.1°F2.8°C 43% 1.2 mph NNW1.9 kmh NNW 3.5 mph5.6 kmh 30.09 in1019.0 mb - 0.00 in0.0 mm 0.00 in0.0 mm
05:00 PM 59.7°F15.4°C 37.1°F2.8°C 43% 4.6 mph SW7.4 kmh SW 3.5 mph5.6 kmh 30.09 in1019.0 mb - 0.00 in0.0 mm 0.00 in0.0 mm
04:50 PM 60.1°F15.6°C 37.0°F2.8°C 42% 1.2 mph S1.9 kmh S 6.9 mph11.1 kmh 30.09 in1019.0 mb - 0.00 in0.0 mm 0.00 in0.0 mm
04:40 PM 60.2°F15.7°C 38.2°F3.4°C 44% 1.2 mph N1.9 kmh N 3.5 mph5.6 kmh 30.08 in1018.6 mb - 0.00 in0.0 mm 0.00 in0.0 mm
04:30 PM 60.3°F15.7°C 38.3°F3.5°C 44% 2.3 mph NW3.7 kmh NW 5.8 mph9.3 kmh 30.09 in1019.0 mb - 0.00 in0.0 mm 0.00 in0.0 mm
04:20 PM 60.7°F15.9°C 38.6°F3.7°C 44% 1.2 mph WNW1.9 kmh WNW 6.9 mph11.1 kmh 30.09 in1019.0 mb - 0.00 in0.0 mm 0.00 in0.0 mm
04:10 PM 60.8°F16.0°C 38.7°F3.7°C 44% 1.2 mph SW1.9 kmh SW 3.5 mph5.6 kmh 30.08 in1018.6 mb - 0.00 in0.0 mm 0.00 in0.0 mm
04:00 PM 60.8°F16.0°C 39.3°F4.1°C 45% 1.2 mph NW1.9 kmh NW 4.6 mph7.4 kmh 30.09 in1019.0 mb - 0.00 in0.0 mm 0.00 in0.0 mm
03:50 PM 60.8°F16.0°C 40.4°F4.7°C 47% 1.2 mph NW1.9 kmh NW 3.5 mph5.6 kmh 30.09 in1019.0 mb - 0.00 in0.0 mm 0.00 in0.0 mm
03:40 PM 60.9°F16.1°C 39.4°F4.1°C 45% 2.3 mph SW3.7 kmh SW 3.5 mph5.6 kmh 30.09 in1019.0 mb - 0.00 in0.0 mm 0.00 in0.0 mm
03:30 PM 61.2°F16.2°C 39.7°F4.3°C 45% 1.2 mph NW1.9 kmh NW 3.5 mph5.6 kmh 30.09 in1019.0 mb - 0.00 in0.0 mm 0.00 in0.0 mm
03:20 PM 61.1°F16.2°C 39.0°F3.9°C 44% 2.3 mph SW3.7 kmh SW 6.9 mph11.1 kmh 30.09 in1019.0 mb - 0.00 in0.0 mm 0.00 in0.0 mm
03:10 PM 60.7°F15.9°C 39.8°F4.3°C 46% 2.3 mph WSW3.7 kmh WSW 3.5 mph5.6 kmh 30.09 in1019.0 mb - 0.00 in0.0 mm 0.00 in0.0 mm
03:00 PM 60.6°F15.9°C 39.1°F3.9°C 45% 2.3 mph WSW3.7 kmh WSW 3.5 mph5.6 kmh 30.09 in1019.0 mb - 0.00 in0.0 mm 0.00 in0.0 mm
02:50 PM 60.5°F15.8°C 39.6°F4.2°C 46% 2.3 mph S3.7 kmh S 3.5 mph5.6 kmh 30.09 in1019.0 mb - 0.00 in0.0 mm 0.00 in0.0 mm
02:40 PM 60.1°F15.6°C 38.6°F3.7°C 45% 3.5 mph N5.6 kmh N 6.9 mph11.1 kmh 30.09 in1019.0 mb - 0.00 in0.0 mm 0.00 in0.0 mm
02:30 PM 60.5°F15.8°C 39.6°F4.2°C 46% 2.3 mph NNW3.7 kmh NNW 6.9 mph11.1 kmh 30.10 in1019.3 mb - 0.00 in0.0 mm 0.00 in0.0 mm
02:20 PM 60.4°F15.8°C 40.6°F4.8°C 48% Calm Calm 2.3 mph3.7 kmh 30.10 in1019.3 mb - 0.00 in0.0 mm 0.00 in0.0 mm
02:10 PM 60.0°F15.6°C 39.7°F4.3°C 47% 1.2 mph NW1.9 kmh NW 3.5 mph5.6 kmh 30.10 in1019.3 mb - 0.00 in0.0 mm 0.00 in0.0 mm
02:00 PM 60.1°F15.6°C 40.4°F4.7°C 48% 2.3 mph NW3.7 kmh NW 2.3 mph3.7 kmh 30.10 in1019.3 mb - 0.00 in0.0 mm 0.00 in0.0 mm
01:50 PM 59.8°F15.4°C 40.0°F4.4°C 48% 2.3 mph N3.7 kmh N 3.5 mph5.6 kmh 30.10 in1019.3 mb - 0.00 in0.0 mm 0.00 in0.0 mm
01:40 PM 59.7°F15.4°C 40.5°F4.7°C 49% 2.3 mph NW3.7 kmh NW 3.5 mph5.6 kmh 30.11 in1019.6 mb - 0.00 in0.0 mm 0.00 in0.0 mm
01:30 PM 59.1°F15.1°C 40.5°F4.7°C 50% 4.6 mph S7.4 kmh S 5.8 mph9.3 kmh 30.11 in1019.6 mb - 0.00 in0.0 mm 0.00 in0.0 mm
01:20 PM 59.2°F15.1°C 41.6°F5.3°C 52% 2.3 mph NW3.7 kmh NW 4.6 mph7.4 kmh 30.11 in1019.6 mb - 0.00 in0.0 mm 0.00 in0.0 mm
01:10 PM 58.9°F14.9°C 41.7°F5.4°C 53% 2.3 mph N3.7 kmh N 3.5 mph5.6 kmh 30.11 in1019.6 mb - 0.00 in0.0 mm 0.00 in0.0 mm
01:00 PM 58.3°F14.6°C 41.2°F5.1°C 53% 2.3 mph N3.7 kmh N 3.5 mph5.6 kmh 30.12 in1020.0 mb - 0.00 in0.0 mm 0.00 in0.0 mm
12:50 PM 57.8°F14.3°C 40.8°F4.9°C 53% 3.5 mph WNW5.6 kmh WNW 8.1 mph13.0 kmh 30.12 in1020.0 mb - 0.00 in0.0 mm 0.00 in0.0 mm
12:40 PM 57.3°F14.1°C 41.2°F5.1°C 55% 3.5 mph N5.6 kmh N 4.6 mph7.4 kmh 30.12 in1020.0 mb - 0.00 in0.0 mm 0.00 in0.0 mm
12:30 PM 56.5°F13.6°C 40.6°F4.8°C 55% 3.5 mph NNW5.6 kmh NNW 9.2 mph14.8 kmh 30.13 in1020.3 mb - 0.00 in0.0 mm 0.00 in0.0 mm
12:20 PM 56.1°F13.4°C 40.6°F4.8°C 56% 2.3 mph NW3.7 kmh NW 3.5 mph5.6 kmh 30.13 in1020.3 mb - 0.00 in0.0 mm 0.00 in0.0 mm
12:10 PM 55.5°F13.1°C 40.5°F4.7°C 57% 3.5 mph SW5.6 kmh SW 5.8 mph9.3 kmh 30.13 in1020.3 mb - 0.00 in0.0 mm 0.00 in0.0 mm
12:00 PM 54.9°F12.7°C 40.9°F4.9°C 59% 3.5 mph SE5.6 kmh SE 3.5 mph5.6 kmh 30.13 in1020.3 mb - 0.00 in0.0 mm 0.00 in0.0 mm
11:50 AM 54.3°F12.4°C 40.3°F4.6°C 59% 1.2 mph N1.9 kmh N 5.8 mph9.3 kmh 30.13 in1020.3 mb - 0.00 in0.0 mm 0.00 in0.0 mm
11:40 AM 53.9°F12.2°C 40.8°F4.9°C 61% 1.2 mph ENE1.9 kmh ENE 6.9 mph11.1 kmh 30.13 in1020.3 mb - 0.00 in0.0 mm 0.00 in0.0 mm
11:30 AM 53.4°F11.9°C 40.7°F4.8°C 62% 1.2 mph NE1.9 kmh NE 8.1 mph13.0 kmh 30.13 in1020.3 mb - 0.00 in0.0 mm 0.00 in0.0 mm
11:20 AM 53.3°F11.8°C 41.0°F5.0°C 63% 1.2 mph W1.9 kmh W 4.6 mph7.4 kmh 30.13 in1020.3 mb - 0.00 in0.0 mm 0.00 in0.0 mm
11:10 AM 53.0°F11.7°C 41.1°F5.1°C 64% 1.2 mph NW1.9 kmh NW 3.5 mph5.6 kmh 30.13 in1020.3 mb - 0.00 in0.0 mm 0.00 in0.0 mm
11:00 AM 52.3°F11.3°C 39.7°F4.3°C 62% 1.2 mph WNW1.9 kmh WNW 3.5 mph5.6 kmh 30.13 in1020.3 mb - 0.00 in0.0 mm 0.00 in0.0 mm
10:50 AM 51.9°F11.1°C 39.7°F4.3°C 63% 1.2 mph SE1.9 kmh SE 4.6 mph7.4 kmh 30.14 in1020.7 mb - 0.00 in0.0 mm 0.00 in0.0 mm
10:40 AM 51.6°F10.9°C 40.2°F4.6°C 65% 2.3 mph SE3.7 kmh SE 5.8 mph9.3 kmh 30.13 in1020.3 mb - 0.00 in0.0 mm 0.00 in0.0 mm
10:30 AM 50.9°F10.5°C 39.5°F4.2°C 65% 2.3 mph NW3.7 kmh NW 4.6 mph7.4 kmh 30.14 in1020.7 mb - 0.00 in0.0 mm 0.00 in0.0 mm
10:20 AM 50.3°F10.2°C 39.4°F4.1°C 66% 4.6 mph NE7.4 kmh NE 3.5 mph5.6 kmh 30.14 in1020.7 mb - 0.00 in0.0 mm 0.00 in0.0 mm
10:10 AM 50.0°F10.0°C 40.6°F4.8°C 70% 3.5 mph W5.6 kmh W 11.5 mph18.5 kmh 30.14 in1020.7 mb - 0.00 in0.0 mm 0.00 in0.0 mm
10:00 AM 49.3°F9.6°C 40.0°F4.4°C 70% 3.5 mph NE5.6 kmh NE 3.5 mph5.6 kmh 30.14 in1020.7 mb - 0.00 in0.0 mm 0.00 in0.0 mm
09:50 AM 49.0°F9.4°C 40.0°F4.4°C 71% 3.5 mph NE5.6 kmh NE 9.2 mph14.8 kmh 30.14 in1020.7 mb - 0.00 in0.0 mm 0.00 in0.0 mm
09:40 AM 48.5°F9.2°C 39.9°F4.4°C 72% 1.2 mph NNE1.9 kmh NNE 4.6 mph7.4 kmh 30.14 in1020.7 mb - 0.00 in0.0 mm 0.00 in0.0 mm
09:30 AM 48.0°F8.9°C 40.1°F4.5°C 74% 2.3 mph N3.7 kmh N 4.6 mph7.4 kmh 30.14 in1020.7 mb - 0.00 in0.0 mm 0.00 in0.0 mm
09:20 AM 47.4°F8.6°C 39.5°F4.2°C 74% 2.3 mph W3.7 kmh W 9.2 mph14.8 kmh 30.14 in1020.7 mb - 0.00 in0.0 mm 0.00 in0.0 mm
09:10 AM 46.4°F8.0°C 39.6°F4.2°C 77% 1.2 mph SW1.9 kmh SW 9.2 mph14.8 kmh 30.14 in1020.7 mb - 0.00 in0.0 mm 0.00 in0.0 mm
09:00 AM 45.6°F7.6°C 39.8°F4.3°C 80% 1.2 mph W1.9 kmh W 3.5 mph5.6 kmh 30.14 in1020.7 mb - 0.00 in0.0 mm 0.00 in0.0 mm
08:50 AM 45.0°F7.2°C 40.7°F4.8°C 85% 2.3 mph WNW3.7 kmh WNW 9.2 mph14.8 kmh 30.14 in1020.7 mb - 0.00 in0.0 mm 0.00 in0.0 mm
08:40 AM 43.4°F6.3°C 40.4°F4.7°C 89% 1.2 mph N1.9 kmh N 3.5 mph5.6 kmh 30.14 in1020.7 mb - 0.00 in0.0 mm 0.00 in0.0 mm
08:30 AM 41.4°F5.2°C 40.9°F4.9°C 98% 2.3 mph NE3.7 kmh NE 2.3 mph3.7 kmh 30.14 in1020.7 mb - 0.00 in0.0 mm 0.00 in0.0 mm
08:20 AM 39.6°F4.2°C 39.3°F4.1°C 99% 1.2 mph NW1.9 kmh NW 6.9 mph11.1 kmh 30.14 in1020.7 mb - 0.00 in0.0 mm 0.00 in0.0 mm
08:10 AM 37.8°F3.2°C 37.6°F3.1°C 99% Calm Calm 3.5 mph5.6 kmh 30.14 in1020.7 mb - 0.00 in0.0 mm 0.00 in0.0 mm
08:00 AM 36.1°F2.3°C 35.9°F2.2°C 99% Calm Calm -- 30.14 in1020.7 mb - 0.00 in0.0 mm 0.00 in0.0 mm
07:50 AM 35.0°F1.7°C 34.5°F1.4°C 98% Calm Calm -- 30.14 in1020.7 mb - 0.00 in0.0 mm 0.00 in0.0 mm
07:40 AM 34.1°F1.2°C 33.6°F0.9°C 98% Calm Calm -- 30.14 in1020.7 mb - 0.00 in0.0 mm 0.00 in0.0 mm
07:30 AM 33.4°F0.8°C 32.9°F0.5°C 98% Calm Calm -- 30.14 in1020.7 mb - 0.00 in0.0 mm 0.00 in0.0 mm
07:20 AM 32.7°F0.4°C 32.2°F0.1°C 98% Calm Calm -- 30.14 in1020.7 mb - 0.00 in0.0 mm 0.00 in0.0 mm
07:10 AM 32.6°F0.3°C 31.9°F-0.1°C 97% Calm Calm -- 30.14 in1020.7 mb - 0.00 in0.0 mm 0.00 in0.0 mm
07:00 AM 32.7°F0.4°C 31.9°F-0.1°C 97% Calm Calm -- 30.14 in1020.7 mb - 0.00 in0.0 mm 0.00 in0.0 mm
06:50 AM 32.9°F0.5°C 32.2°F0.1°C 97% Calm Calm -- 30.14 in1020.7 mb - 0.00 in0.0 mm 0.00 in0.0 mm
06:40 AM 33.1°F0.6°C 32.4°F0.2°C 97% Calm Calm -- 30.13 in1020.3 mb - 0.00 in0.0 mm 0.00 in0.0 mm
06:30 AM 33.2°F0.7°C 32.5°F0.3°C 97% Calm Calm -- 30.13 in1020.3 mb - 0.00 in0.0 mm 0.00 in0.0 mm
06:20 AM 33.5°F0.8°C 32.7°F0.4°C 97% Calm Calm -- 30.13 in1020.3 mb - 0.00 in0.0 mm 0.00 in0.0 mm
06:10 AM 33.6°F0.9°C 32.9°F0.5°C 97% Calm Calm -- 30.13 in1020.3 mb - 0.00 in0.0 mm 0.00 in0.0 mm
06:00 AM 33.7°F0.9°C 33.0°F0.6°C 97% Calm Calm -- 30.13 in1020.3 mb - 0.00 in0.0 mm 0.00 in0.0 mm
05:50 AM 34.0°F1.1°C 33.2°F0.7°C 97% Calm Calm -- 30.13 in1020.3 mb - 0.00 in0.0 mm 0.00 in0.0 mm
05:40 AM 34.3°F1.3°C 33.5°F0.8°C 97% Calm Calm -- 30.12 in1020.0 mb - 0.00 in0.0 mm 0.00 in0.0 mm
05:30 AM 34.5°F1.4°C 33.7°F0.9°C 97% Calm Calm -- 30.12 in1020.0 mb - 0.00 in0.0 mm 0.00 in0.0 mm
05:20 AM 34.8°F1.6°C 34.1°F1.2°C 97% Calm Calm -- 30.12 in1020.0 mb - 0.00 in0.0 mm 0.00 in0.0 mm
05:10 AM 35.0°F1.7°C 34.2°F1.2°C 97% Calm Calm -- 30.12 in1020.0 mb - 0.00 in0.0 mm 0.00 in0.0 mm
05:00 AM 35.2°F1.8°C 34.4°F1.3°C 97% Calm Calm -- 30.12 in1020.0 mb - 0.00 in0.0 mm 0.00 in0.0 mm
04:50 AM 35.3°F1.8°C 34.6°F1.4°C 97% Calm Calm -- 30.12 in1020.0 mb - 0.00 in0.0 mm 0.00 in0.0 mm
04:40 AM 35.4°F1.9°C 34.6°F1.4°C 97% Calm Calm -- 30.12 in1020.0 mb - 0.00 in0.0 mm 0.00 in0.0 mm
04:30 AM 35.5°F1.9°C 34.7°F1.5°C 97% Calm Calm -- 30.12 in1020.0 mb - 0.00 in0.0 mm 0.00 in0.0 mm
04:20 AM 35.5°F1.9°C 34.7°F1.5°C 97% Calm Calm -- 30.12 in1020.0 mb - 0.00 in0.0 mm 0.00 in0.0 mm
04:10 AM 35.6°F2.0°C 34.8°F1.6°C 97% Calm Calm -- 30.12 in1020.0 mb - 0.00 in0.0 mm 0.00 in0.0 mm
04:00 AM 35.8°F2.1°C 35.0°F1.7°C 97% Calm Calm -- 30.12 in1020.0 mb - 0.00 in0.0 mm 0.00 in0.0 mm
03:50 AM 36.0°F2.2°C 35.2°F1.8°C 97% Calm Calm -- 30.12 in1020.0 mb - 0.00 in0.0 mm 0.00 in0.0 mm
03:40 AM 36.3°F2.4°C 35.5°F1.9°C 97% Calm Calm -- 30.12 in1020.0 mb - 0.00 in0.0 mm 0.00 in0.0 mm
03:30 AM 36.6°F2.6°C 35.8°F2.1°C 97% Calm Calm -- 30.12 in1020.0 mb - 0.00 in0.0 mm 0.00 in0.0 mm
03:20 AM 36.8°F2.7°C 36.0°F2.2°C 97% Calm Calm -- 30.11 in1019.6 mb - 0.00 in0.0 mm 0.00 in0.0 mm
03:10 AM 37.0°F2.8°C 36.2°F2.3°C 97% Calm Calm -- 30.11 in1019.6 mb - 0.00 in0.0 mm 0.00 in0.0 mm
03:00 AM 37.2°F2.9°C 36.5°F2.5°C 97% Calm Calm -- 30.11 in1019.6 mb - 0.00 in0.0 mm 0.00 in0.0 mm
02:50 AM 37.5°F3.1°C 36.7°F2.6°C 97% Calm Calm -- 30.11 in1019.6 mb - 0.00 in0.0 mm 0.00 in0.0 mm
02:40 AM 37.7°F3.2°C 36.9°F2.7°C 97% Calm Calm -- 30.11 in1019.6 mb - 0.00 in0.0 mm 0.00 in0.0 mm
02:30 AM 37.6°F3.1°C 36.8°F2.7°C 97% Calm Calm -- 30.12 in1020.0 mb - 0.00 in0.0 mm 0.00 in0.0 mm
02:20 AM 37.3°F2.9°C 36.6°F2.6°C 97% Calm Calm -- 30.11 in1019.6 mb - 0.00 in0.0 mm 0.00 in0.0 mm
02:10 AM 37.4°F3.0°C 36.6°F2.6°C 97% Calm Calm -- 30.11 in1019.6 mb - 0.00 in0.0 mm 0.00 in0.0 mm
02:00 AM 37.6°F3.1°C 36.8°F2.7°C 97% Calm Calm -- 30.11 in1019.6 mb - 0.00 in0.0 mm 0.00 in0.0 mm
01:50 AM 37.7°F3.2°C 36.9°F2.7°C 97% Calm Calm -- 30.11 in1019.6 mb - 0.00 in0.0 mm 0.00 in0.0 mm
01:40 AM 37.8°F3.2°C 37.0°F2.8°C 97% Calm Calm -- 30.11 in1019.6 mb - 0.00 in0.0 mm 0.00 in0.0 mm
01:30 AM 37.9°F3.3°C 37.1°F2.8°C 97% Calm Calm -- 30.11 in1019.6 mb - 0.00 in0.0 mm 0.00 in0.0 mm
01:20 AM 38.0°F3.3°C 36.9°F2.7°C 96% Calm Calm -- 30.10 in1019.3 mb - 0.00 in0.0 mm 0.00 in0.0 mm
01:10 AM 38.1°F3.4°C 37.1°F2.8°C 96% Calm Calm -- 30.10 in1019.3 mb - 0.00 in0.0 mm 0.00 in0.0 mm
01:00 AM 38.2°F3.4°C 37.4°F3.0°C 97% Calm Calm -- 30.10 in1019.3 mb - 0.00 in0.0 mm 0.00 in0.0 mm
12:50 AM 38.3°F3.5°C 37.2°F2.9°C 96% Calm Calm -- 30.10 in1019.3 mb - 0.00 in0.0 mm 0.00 in0.0 mm
12:40 AM 38.3°F3.5°C 37.3°F2.9°C 96% Calm Calm -- 30.10 in1019.3 mb - 0.00 in0.0 mm 0.00 in0.0 mm
12:30 AM 38.5°F3.6°C 37.5°F3.1°C 96% Calm Calm -- 30.09 in1019.0 mb - 0.00 in0.0 mm 0.00 in0.0 mm
12:20 AM 38.8°F3.8°C 37.8°F3.2°C 96% Calm Calm -- 30.10 in1019.3 mb - 0.00 in0.0 mm 0.00 in0.0 mm
12:10 AM 39.0°F3.9°C 37.9°F3.3°C 96% Calm Calm -- 30.10 in1019.3 mb - 0.00 in0.0 mm 0.00 in0.0 mm
12:00 AM 39.1°F3.9°C 38.1°F3.4°C 96% Calm Calm -- 30.10 in1019.3 mb - 0.00 in0.0 mm 0.00 in0.0 mm